Oriental Navigator — DSMA8 — position and weather

sailwx.info

Track history (hours):
 
Tides and Currents Weather Stations Pressure Air Temp Water Temp Dewpoint Dewpoint Depression Visibility Wind Speed Wind Dir Waves Ship Positions

Oriental Navigator

Last reported at 2017-Nov-09 16:30 UTC. Time now 2017-Nov-22 18:36 UTC.
Position N 48°57' W 126°29'.
Warning: this ship's position is 13 days out of date.

Length 289 m; draft 16.7 m.

Type: Cargo ship. MMSI: 441969000.

Date/timePositionNaut miles runAvg speedWind from/ knotsBaromVisibWave heightAir tempDewpointWater temp
2017-Nov-09 16:30N 48°57' W 126°29'611.9
2017-Nov-09 16:00N 48°55' W 126°21'611.8
2017-Nov-09 15:30N 48°52' W 126°13'612.6
2017-Nov-09 15:00N 48°49' W 126°04'612.0
2017-Nov-09 14:30N 48°46' W 125°56'611.7
2017-Nov-09 14:00N 48°44' W 125°48'611.6
2017-Nov-09 13:30N 48°41' W 125°40'611.7
2017-Nov-09 13:00N 48°38' W 125°32'611.8
2017-Nov-09 12:30N 48°36' W 125°24'611.7
2017-Nov-09 12:00N 48°33' W 125°17'510.7
2017-Nov-09 11:30N 48°31' W 125°09'510.6
2017-Nov-09 11:00N 48°31' W 125°01'510.5
2017-Nov-09 10:30N 48°31' W 124°53'611.1
2017-Nov-09 10:00N 48°31' W 124°44'613.1
2017-Nov-09 09:30N 48°29' W 124°35'713.7
2017-Nov-09 09:00N 48°26' W 124°26'713.8
2017-Nov-09 08:29N 48°23' W 124°16'714.4
2017-Nov-09 08:00N 48°20' W 124°06'714.4
2017-Nov-09 07:30N 48°18' W 123°56'815.1
2017-Nov-09 07:01N 48°17' W 123°45'815.9
2017-Nov-09 06:30N 48°16' W 123°33'713.1
2017-Nov-09 06:00N 48°20' W 123°26'5 9.7
2017-Nov-09 05:30N 48°23' W 123°20'612.0
2017-Nov-09 05:00N 48°26' W 123°12'713.4
2017-Nov-09 04:30N 48°33' W 123°13'713.3
2017-Nov-09 04:00N 48°39' W 123°15'510.6
2017-Nov-09 03:30N 48°44' W 123°11'612.5
2017-Nov-09 03:00N 48°47' W 123°02'510.9
2017-Nov-09 02:30N 48°52' W 123°03'611.8
2017-Nov-09 02:00N 48°57' W 123°07'4 7.5
2017-Nov-09 01:29N 49°01' W 123°10'0 0.3
2017-Nov-09 00:58N 49°01' W 123°10'0 0.0
2017-Nov-09 00:28N 49°01' W 123°10'0 0.0
2017-Nov-08 23:52N 49°01' W 123°10'0 0.0
2017-Nov-08 23:22N 49°01' W 123°10'0 0.0
2017-Nov-08 22:58N 49°01' W 123°10'0 0.0
2017-Nov-08 22:25N 49°01' W 123°10'0 0.0
2017-Nov-08 21:59N 49°01' W 123°10'0 0.0
2017-Nov-08 21:29N 49°01' W 123°10'0 0.0
2017-Nov-08 20:58N 49°01' W 123°10'0 0.0
2017-Nov-08 20:16N 49°01' W 123°10'0 0.0
2017-Nov-08 19:58N 49°01' W 123°10'0 0.0
2017-Nov-08 19:22N 49°01' W 123°10'0 0.0
2017-Nov-08 18:58N 49°01' W 123°10'0 0.0
2017-Nov-08 18:25N 49°01' W 123°10'0 0.0
2017-Nov-08 17:37N 49°01' W 123°10'0 0.0
2017-Nov-08 17:28N 49°01' W 123°10'0 0.0
2017-Nov-08 16:55N 49°01' W 123°10'0 0.0
2017-Nov-08 16:28N 49°01' W 123°10'0 0.0
2017-Nov-08 15:52N 49°01' W 123°10'0 0.0
2017-Nov-08 15:25N 49°01' W 123°10'0 0.0
2017-Nov-08 14:58N 49°01' W 123°10'0 0.0
2017-Nov-08 12:10N 49°01' W 123°10'0 0.0
2017-Nov-08 11:58N 49°01' W 123°10'0 0.0
2017-Nov-08 11:07N 49°01' W 123°10'0 0.0
2017-Nov-08 10:20N 49°01' W 123°10'0 0.1
2017-Nov-08 10:00N 49°01' W 123°10'0 0.3
2017-Nov-08 09:30N 49°01' W 123°10'0 0.7
2017-Nov-08 09:00N 49°00' W 123°11'3 5.2
2017-Nov-08 08:30N 49°00' W 123°15'5 9.2
2017-Nov-08 07:59N 49°02' W 123°21'611.9
2017-Nov-08 07:30N 49°08' W 123°23'612.8
2017-Nov-08 07:00N 49°14' W 123°21'510.5
2017-Nov-08 06:30N 49°18' W 123°16'2 3.6
2017-Nov-08 06:00N 49°18' W 123°13'0 0.1
2017-Nov-08 05:24N 49°18' W 123°13'0 0.1
2017-Nov-08 05:00N 49°18' W 123°13'0 0.0
2017-Nov-08 04:30N 49°18' W 123°13'0 0.0
2017-Nov-08 04:00N 49°18' W 123°13'0 0.0
2017-Nov-08 03:30N 49°18' W 123°13'0 0.0
2017-Nov-08 03:00N 49°18' W 123°13'0 0.0
2017-Nov-08 02:30N 49°18' W 123°13'0 0.1
2017-Nov-08 02:00N 49°18' W 123°13'0 0.1
2017-Nov-08 01:30N 49°18' W 123°13'0 0.1
2017-Nov-08 01:00N 49°18' W 123°13'0 0.1
2017-Nov-07 23:45N 49°18' W 123°13'0 0.3
2017-Nov-07 23:30N 49°18' W 123°13'0 0.1
2017-Nov-07 22:54N 49°18' W 123°13'0 0.1
2017-Nov-07 22:30N 49°18' W 123°14'0 0.1
2017-Nov-07 22:00N 49°18' W 123°14'0 0.0
2017-Nov-07 21:27N 49°18' W 123°14'0 0.0
2017-Nov-07 21:00N 49°18' W 123°14'0 0.0
2017-Nov-07 20:30N 49°18' W 123°14'0 0.0
2017-Nov-07 19:39N 49°18' W 123°14'0 0.0
2017-Nov-07 19:27N 49°18' W 123°14'0 0.0
2017-Nov-07 19:00N 49°18' W 123°14'0 0.1
2017-Nov-07 18:30N 49°18' W 123°14'0 0.1
2017-Nov-07 18:00N 49°18' W 123°14'0 0.0
2017-Nov-07 17:27N 49°18' W 123°14'0 0.0
2017-Nov-07 17:00N 49°18' W 123°14'0 0.1
2017-Nov-07 16:28N 49°18' W 123°14'0 0.0
2017-Nov-07 16:00N 49°18' W 123°14'0 0.0
2017-Nov-07 15:30N 49°18' W 123°14'0 0.0
2017-Nov-07 15:00N 49°18' W 123°14'0 0.1
2017-Nov-07 14:27N 49°18' W 123°14'0 0.1
2017-Nov-07 14:00N 49°18' W 123°13'0 0.2
2017-Nov-07 13:30N 49°18' W 123°13'0 0.1
2017-Nov-07 12:57N 49°18' W 123°13'0 0.0
2017-Nov-07 12:30N 49°18' W 123°13'0 0.1
2017-Nov-07 11:57N 49°18' W 123°13'0 0.0
2017-Nov-07 11:24N 49°18' W 123°13'0 0.0
2017-Nov-07 11:00N 49°18' W 123°13'0 0.1
2017-Nov-07 10:30N 49°18' W 123°13'0 0.0
2017-Nov-07 10:00N 49°18' W 123°13'0 0.1
2017-Nov-07 09:30N 49°18' W 123°13'0 0.0
2017-Nov-07 09:00N 49°18' W 123°13'0 0.1
2017-Nov-07 08:27N 49°18' W 123°13'0 0.0
2017-Nov-07 08:00N 49°18' W 123°13'0 0.0
2017-Nov-07 07:27N 49°18' W 123°13'0 0.1
2017-Nov-07 07:00N 49°18' W 123°13'0 0.1
2017-Nov-07 06:30N 49°18' W 123°13'0 0.1
2017-Nov-07 06:00N 49°18' W 123°13'0 0.0
2017-Nov-07 05:30N 49°18' W 123°13'0 0.1
2017-Nov-07 05:00N 49°18' W 123°13'0 0.0
2017-Nov-07 04:30N 49°18' W 123°13'0 0.0
2017-Nov-07 03:57N 49°18' W 123°13'0 0.0
2017-Nov-07 03:27N 49°18' W 123°13'0 0.1
2017-Nov-07 03:00N 49°18' W 123°13'0 0.0
2017-Nov-07 02:30N 49°18' W 123°13'0 0.0
2017-Nov-07 02:00N 49°18' W 123°13'0 0.0
2017-Nov-07 01:30N 49°18' W 123°13'0 0.1
2017-Nov-07 01:00N 49°18' W 123°13'0 0.1
2017-Nov-07 00:30N 49°18' W 123°13'0 0.2
2017-Nov-07 00:00N 49°18' W 123°13'0 0.1
2017-Nov-06 23:30N 49°18' W 123°13'0 0.1
2017-Nov-06 22:54N 49°18' W 123°13'0 0.1
2017-Nov-06 22:30N 49°18' W 123°14'0 0.2
2017-Nov-06 22:00N 49°18' W 123°14'0 0.1
2017-Nov-06 21:30N 49°18' W 123°14'0 0.1
2017-Nov-06 21:00N 49°18' W 123°14'0 0.0
2017-Nov-06 20:15N 49°18' W 123°14'0 0.0
2017-Nov-06 02:30N 49°18' W 123°13'0 0.0
2017-Nov-06 02:00N 49°18' W 123°13'0 0.0
2017-Nov-06 01:18N 49°18' W 123°13'0 0.1
2017-Nov-06 01:00N 49°18' W 123°13'0 0.2
2017-Nov-06 00:21N 49°18' W 123°13'0 0.1
2017-Nov-06 00:00N 49°18' W 123°13'0 0.2
2017-Nov-05 23:30N 49°18' W 123°14'2 3.9
2017-Nov-05 23:00N 49°18' W 123°17'4 8.7
2017-Nov-05 22:30N 49°14' W 123°19'612.6
2017-Nov-05 22:00N 49°07' W 123°20'611.4
2017-Nov-05 21:30N 49°02' W 123°17'5 9.9
2017-Nov-05 21:00N 49°00' W 123°10'1 0.3
2017-Nov-05 18:13N 49°01' W 123°09'0 0.0
2017-Nov-05 17:55N 49°01' W 123°09'0 0.0
2017-Nov-05 17:28N 49°01' W 123°09'0 0.0
2017-Nov-05 16:58N 49°01' W 123°09'0 0.0
2017-Nov-05 14:43N 49°01' W 123°09'0 0.0
2017-Nov-05 14:22N 49°01' W 123°09'0 0.0
2017-Nov-05 13:34N 49°01' W 123°09'0 0.0
2017-Nov-04 17:55N 49°01' W 123°09'0 0.0
2017-Nov-04 15:10N 49°01' W 123°09'0 0.0
2017-Nov-04 14:40N 49°01' W 123°09'0 0.0
2017-Nov-04 13:58N 49°01' W 123°09'0 0.0
2017-Nov-04 10:28N 49°01' W 123°09'0 0.0
2017-Nov-04 09:43N 49°01' W 123°09'0 0.0
2017-Nov-04 09:28N 49°01' W 123°09'0 0.0
2017-Nov-04 08:22N 49°01' W 123°09'0 0.0
2017-Nov-04 07:49N 49°01' W 123°09'0 0.0
2017-Nov-04 07:13N 49°01' W 123°09'0 0.0
2017-Nov-04 06:52N 49°01' W 123°09'0 0.0
2017-Nov-04 06:13N 49°01' W 123°09'0 0.0
2017-Nov-04 05:46N 49°01' W 123°09'0 0.0
2017-Nov-04 05:28N 49°01' W 123°09'0 0.0
2017-Nov-04 01:22N 49°01' W 123°09'0 0.0
2017-Nov-03 10:40N 49°01' W 123°09'0 0.0
2017-Nov-03 10:28N 49°01' W 123°09'0 0.0
2017-Nov-03 09:46N 49°01' W 123°09'0 0.0
2017-Nov-03 08:58N 49°01' W 123°09'0 0.0
2017-Nov-03 04:16N 49°01' W 123°09'0 0.1
2017-Nov-03 03:58N 49°01' W 123°09'1 1.5
2017-Nov-03 03:30N 49°00' W 123°10'4 8.0
2017-Nov-03 03:00N 49°00' W 123°16'612.7
2017-Nov-03 02:30N 49°04' W 123°24'612.8
2017-Nov-03 02:00N 49°10' W 123°24'713.4
2017-Nov-03 01:30N 49°17' W 123°21'510.0
2017-Nov-03 01:01N 49°18' W 123°13'0 0.1
2017-Nov-03 00:30N 49°18' W 123°13'0 0.1
2017-Nov-02 23:57N 49°18' W 123°13'0 0.1
2017-Nov-02 23:24N 49°18' W 123°13'0 0.4
2017-Nov-02 23:00N 49°18' W 123°14'0 0.4
2017-Nov-02 22:30N 49°18' W 123°14'0 0.1
2017-Nov-02 22:00N 49°18' W 123°14'0 0.1
2017-Nov-02 21:30N 49°18' W 123°14'0 0.1
2017-Nov-02 21:00N 49°18' W 123°14'0 0.0
2017-Nov-02 20:30N 49°18' W 123°14'0 0.0
2017-Nov-02 20:00N 49°18' W 123°14'0 0.1
2017-Nov-02 19:27N 49°18' W 123°14'0 0.0
2017-Nov-02 19:00N 49°18' W 123°14'0 0.1
2017-Nov-02 18:30N 49°18' W 123°14'0 0.2
2017-Nov-02 18:00N 49°18' W 123°14'0 0.0
2017-Nov-02 17:30N 49°18' W 123°14'0 0.2
2017-Nov-02 17:00N 49°18' W 123°14'0 0.3
2017-Nov-02 16:30N 49°18' W 123°14'0 0.3
2017-Nov-02 16:00N 49°18' W 123°13'0 0.0
2017-Nov-02 15:27N 49°18' W 123°13'0 0.1
2017-Nov-02 15:00N 49°18' W 123°13'0 0.0
2017-Nov-02 14:27N 49°18' W 123°13'0 0.1
2017-Nov-02 14:00N 49°18' W 123°13'0 0.0
2017-Nov-02 13:30N 49°18' W 123°13'0 0.0
2017-Nov-02 13:00N 49°18' W 123°13'0 0.0
2017-Nov-02 12:30N 49°18' W 123°13'0 0.1
2017-Nov-02 12:00N 49°18' W 123°13'0 0.1
2017-Nov-02 11:30N 49°18' W 123°13'0 0.0
2017-Nov-02 11:00N 49°18' W 123°13'0 0.2
2017-Nov-02 10:30N 49°18' W 123°14'0 0.0
2017-Nov-02 10:00N 49°18' W 123°14'0 0.0
2017-Nov-02 09:30N 49°18' W 123°14'0 0.1
2017-Nov-02 09:00N 49°18' W 123°13'0 0.2
2017-Nov-02 08:30N 49°18' W 123°13'0 0.0
2017-Nov-02 08:00N 49°18' W 123°13'0 0.0
2017-Nov-02 07:30N 49°18' W 123°13'0 0.0
2017-Nov-02 07:00N 49°18' W 123°13'0 0.0
2017-Nov-02 06:30N 49°18' W 123°13'0 0.1
2017-Nov-02 06:00N 49°18' W 123°13'0 0.3
2017-Nov-02 05:30N 49°18' W 123°14'0 0.2
2017-Nov-02 05:00N 49°18' W 123°14'0 0.1
2017-Nov-02 04:30N 49°18' W 123°14'0 0.0
2017-Nov-02 03:57N 49°18' W 123°14'0 0.0
2017-Nov-02 03:30N 49°18' W 123°14'0 0.1
2017-Nov-02 03:00N 49°18' W 123°14'0 0.0
2017-Nov-02 02:30N 49°18' W 123°14'0 0.1
2017-Nov-02 02:00N 49°18' W 123°14'0 0.0
2017-Nov-02 01:30N 49°18' W 123°14'0 0.1
2017-Nov-02 00:57N 49°18' W 123°14'0 0.1
2017-Nov-02 00:30N 49°18' W 123°14'0 0.1
2017-Nov-02 00:00N 49°18' W 123°14'0 0.0
2017-Nov-01 23:30N 49°18' W 123°14'0 0.1
2017-Nov-01 23:00N 49°18' W 123°14'0 0.1
2017-Nov-01 22:30N 49°18' W 123°14'0 0.0
2017-Nov-01 22:00N 49°18' W 123°14'0 0.1
2017-Nov-01 21:30N 49°18' W 123°14'0 0.1
2017-Nov-01 21:00N 49°18' W 123°14'0 0.1
2017-Nov-01 20:30N 49°18' W 123°13'0 0.2
2017-Nov-01 20:00N 49°18' W 123°13'0 0.1
2017-Nov-01 19:30N 49°18' W 123°13'0 0.1
2017-Nov-01 19:00N 49°18' W 123°13'0 0.0
2017-Nov-01 18:30N 49°18' W 123°13'0 0.0
2017-Nov-01 02:00N 49°18' W 123°13'0 0.1
2017-Nov-01 01:30N 49°18' W 123°13'0 0.0
2017-Nov-01 01:00N 49°18' W 123°13'0 0.0
2017-Nov-01 00:24N 49°18' W 123°13'0 0.0
2017-Nov-01 00:00N 49°18' W 123°13'0 0.1
2017-Oct-31 23:30N 49°18' W 123°13'0 0.0
2017-Oct-31 23:00N 49°18' W 123°13'0 0.1
2017-Oct-31 22:30N 49°18' W 123°13'0 0.0
2017-Oct-31 22:00N 49°18' W 123°13'0 0.1
2017-Oct-31 21:30N 49°18' W 123°14'0 0.1
2017-Oct-31 21:00N 49°18' W 123°14'0 0.1
2017-Oct-31 20:30N 49°18' W 123°14'0 0.2
2017-Oct-31 20:00N 49°18' W 123°14'0 0.1
2017-Oct-31 19:27N 49°18' W 123°14'0 0.0
2017-Oct-31 19:00N 49°18' W 123°14'0 0.1
2017-Oct-31 18:27N 49°18' W 123°14'0 0.0
2017-Oct-31 18:00N 49°18' W 123°14'0 0.0
2017-Oct-31 17:30N 49°18' W 123°14'0 0.0
2017-Oct-31 17:00N 49°18' W 123°14'0 0.0
2017-Oct-31 16:30N 49°18' W 123°14'0 0.0
2017-Oct-31 16:01N 49°18' W 123°14'0 0.2
2017-Oct-31 15:31N 49°18' W 123°14'1 1.9
2017-Oct-31 15:00N 49°18' W 123°15'4 8.3
2017-Oct-31 14:31N 49°17' W 123°21'713.3
2017-Oct-31 14:00N 49°10' W 123°21'612.9
2017-Oct-31 13:30N 49°04' W 123°20'713.2
2017-Oct-31 13:00N 48°59' W 123°13'612.9
2017-Oct-31 12:31N 48°54' W 123°06'613.0
2017-Oct-31 12:01N 48°49' W 123°00'510.9
2017-Oct-31 11:31N 48°45' W 123°05'612.8
2017-Oct-31 11:00N 48°44' W 123°15'612.6
2017-Oct-31 10:30N 48°44' W 123°25'4 8.0
2017-Oct-31 09:58N 48°43' W 123°31'1 0.1
2017-Oct-30 19:07N 48°43' W 123°33'0 0.0
2017-Oct-30 18:46N 48°43' W 123°33'  
Track history (hours):
 
Tides and Currents Weather Stations Pressure Air Temp Water Temp Dewpoint Dewpoint Depression Visibility Wind Speed Wind Dir Waves Ship Positions

Oriental Navigator

Last reported at 2017-Nov-09 16:30 UTC. Time now 2017-Nov-22 18:36 UTC.
Position N 48°57' W 126°29'.
Warning: this ship's position is 13 days out of date.

Length 289 m; draft 16.7 m.

Type: Cargo ship. MMSI: 441969000.

Date/timePositionNaut miles runAvg speedWind from/ knotsBaromVisibWave heightAir tempDewpointWater temp
2017-Nov-09 16:30N 48°57' W 126°29'611.9
2017-Nov-09 16:00N 48°55' W 126°21'611.8
2017-Nov-09 15:30N 48°52' W 126°13'612.6
2017-Nov-09 15:00N 48°49' W 126°04'612.0
2017-Nov-09 14:30N 48°46' W 125°56'611.7
2017-Nov-09 14:00N 48°44' W 125°48'611.6
2017-Nov-09 13:30N 48°41' W 125°40'611.7
2017-Nov-09 13:00N 48°38' W 125°32'611.8
2017-Nov-09 12:30N 48°36' W 125°24'611.7
2017-Nov-09 12:00N 48°33' W 125°17'510.7
2017-Nov-09 11:30N 48°31' W 125°09'510.6
2017-Nov-09 11:00N 48°31' W 125°01'510.5
2017-Nov-09 10:30N 48°31' W 124°53'611.1
2017-Nov-09 10:00N 48°31' W 124°44'613.1
2017-Nov-09 09:30N 48°29' W 124°35'713.7
2017-Nov-09 09:00N 48°26' W 124°26'713.8
2017-Nov-09 08:29N 48°23' W 124°16'714.4
2017-Nov-09 08:00N 48°20' W 124°06'714.4
2017-Nov-09 07:30N 48°18' W 123°56'815.1
2017-Nov-09 07:01N 48°17' W 123°45'815.9
2017-Nov-09 06:30N 48°16' W 123°33'713.1
2017-Nov-09 06:00N 48°20' W 123°26'5 9.7
2017-Nov-09 05:30N 48°23' W 123°20'612.0
2017-Nov-09 05:00N 48°26' W 123°12'713.4
2017-Nov-09 04:30N 48°33' W 123°13'713.3
2017-Nov-09 04:00N 48°39' W 123°15'510.6
2017-Nov-09 03:30N 48°44' W 123°11'612.5
2017-Nov-09 03:00N 48°47' W 123°02'510.9
2017-Nov-09 02:30N 48°52' W 123°03'611.8
2017-Nov-09 02:00N 48°57' W 123°07'4 7.5
2017-Nov-09 01:29N 49°01' W 123°10'0 0.3
2017-Nov-09 00:58N 49°01' W 123°10'0 0.0
2017-Nov-09 00:28N 49°01' W 123°10'0 0.0
2017-Nov-08 23:52N 49°01' W 123°10'0 0.0
2017-Nov-08 23:22N 49°01' W 123°10'0 0.0
2017-Nov-08 22:58N 49°01' W 123°10'0 0.0
2017-Nov-08 22:25N 49°01' W 123°10'0 0.0
2017-Nov-08 21:59N 49°01' W 123°10'0 0.0
2017-Nov-08 21:29N 49°01' W 123°10'0 0.0
2017-Nov-08 20:58N 49°01' W 123°10'0 0.0
2017-Nov-08 20:16N 49°01' W 123°10'0 0.0
2017-Nov-08 19:58N 49°01' W 123°10'0 0.0
2017-Nov-08 19:22N 49°01' W 123°10'0 0.0
2017-Nov-08 18:58N 49°01' W 123°10'0 0.0
2017-Nov-08 18:25N 49°01' W 123°10'0 0.0
2017-Nov-08 17:37N 49°01' W 123°10'0 0.0
2017-Nov-08 17:28N 49°01' W 123°10'0 0.0
2017-Nov-08 16:55N 49°01' W 123°10'0 0.0
2017-Nov-08 16:28N 49°01' W 123°10'0 0.0
2017-Nov-08 15:52N 49°01' W 123°10'0 0.0
2017-Nov-08 15:25N 49°01' W 123°10'0 0.0
2017-Nov-08 14:58N 49°01' W 123°10'0 0.0
2017-Nov-08 12:10N 49°01' W 123°10'0 0.0
2017-Nov-08 11:58N 49°01' W 123°10'0 0.0
2017-Nov-08 11:07N 49°01' W 123°10'0 0.0
2017-Nov-08 10:20N 49°01' W 123°10'0 0.1
2017-Nov-08 10:00N 49°01' W 123°10'0 0.3
2017-Nov-08 09:30N 49°01' W 123°10'0 0.7
2017-Nov-08 09:00N 49°00' W 123°11'3 5.2
2017-Nov-08 08:30N 49°00' W 123°15'5 9.2
2017-Nov-08 07:59N 49°02' W 123°21'611.9
2017-Nov-08 07:30N 49°08' W 123°23'612.8
2017-Nov-08 07:00N 49°14' W 123°21'510.5
2017-Nov-08 06:30N 49°18' W 123°16'2 3.6
2017-Nov-08 06:00N 49°18' W 123°13'0 0.1
2017-Nov-08 05:24N 49°18' W 123°13'0 0.1
2017-Nov-08 05:00N 49°18' W 123°13'0 0.0
2017-Nov-08 04:30N 49°18' W 123°13'0 0.0
2017-Nov-08 04:00N 49°18' W 123°13'0 0.0
2017-Nov-08 03:30N 49°18' W 123°13'0 0.0
2017-Nov-08 03:00N 49°18' W 123°13'0 0.0
2017-Nov-08 02:30N 49°18' W 123°13'0 0.1
2017-Nov-08 02:00N 49°18' W 123°13'0 0.1
2017-Nov-08 01:30N 49°18' W 123°13'0 0.1
2017-Nov-08 01:00N 49°18' W 123°13'0 0.1
2017-Nov-07 23:45N 49°18' W 123°13'0 0.3
2017-Nov-07 23:30N 49°18' W 123°13'0 0.1
2017-Nov-07 22:54N 49°18' W 123°13'0 0.1
2017-Nov-07 22:30N 49°18' W 123°14'0 0.1
2017-Nov-07 22:00N 49°18' W 123°14'0 0.0
2017-Nov-07 21:27N 49°18' W 123°14'0 0.0
2017-Nov-07 21:00N 49°18' W 123°14'0 0.0
2017-Nov-07 20:30N 49°18' W 123°14'0 0.0
2017-Nov-07 19:39N 49°18' W 123°14'0 0.0
2017-Nov-07 19:27N 49°18' W 123°14'0 0.0
2017-Nov-07 19:00N 49°18' W 123°14'0 0.1
2017-Nov-07 18:30N 49°18' W 123°14'0 0.1
2017-Nov-07 18:00N 49°18' W 123°14'0 0.0
2017-Nov-07 17:27N 49°18' W 123°14'0 0.0
2017-Nov-07 17:00N 49°18' W 123°14'0 0.1
2017-Nov-07 16:28N 49°18' W 123°14'0 0.0
2017-Nov-07 16:00N 49°18' W 123°14'0 0.0
2017-Nov-07 15:30N 49°18' W 123°14'0 0.0
2017-Nov-07 15:00N 49°18' W 123°14'0 0.1
2017-Nov-07 14:27N 49°18' W 123°14'0 0.1
2017-Nov-07 14:00N 49°18' W 123°13'0 0.2
2017-Nov-07 13:30N 49°18' W 123°13'0 0.1
2017-Nov-07 12:57N 49°18' W 123°13'0 0.0
2017-Nov-07 12:30N 49°18' W 123°13'0 0.1
2017-Nov-07 11:57N 49°18' W 123°13'0 0.0
2017-Nov-07 11:24N 49°18' W 123°13'0 0.0
2017-Nov-07 11:00N 49°18' W 123°13'0 0.1
2017-Nov-07 10:30N 49°18' W 123°13'0 0.0
2017-Nov-07 10:00N 49°18' W 123°13'0 0.1
2017-Nov-07 09:30N 49°18' W 123°13'0 0.0
2017-Nov-07 09:00N 49°18' W 123°13'0 0.1
2017-Nov-07 08:27N 49°18' W 123°13'0 0.0
2017-Nov-07 08:00N 49°18' W 123°13'0 0.0
2017-Nov-07 07:27N 49°18' W 123°13'0 0.1
2017-Nov-07 07:00N 49°18' W 123°13'0 0.1
2017-Nov-07 06:30N 49°18' W 123°13'0 0.1
2017-Nov-07 06:00N 49°18' W 123°13'0 0.0
2017-Nov-07 05:30N 49°18' W 123°13'0 0.1
2017-Nov-07 05:00N 49°18' W 123°13'0 0.0
2017-Nov-07 04:30N 49°18' W 123°13'0 0.0
2017-Nov-07 03:57N 49°18' W 123°13'0 0.0
2017-Nov-07 03:27N 49°18' W 123°13'0 0.1
2017-Nov-07 03:00N 49°18' W 123°13'0 0.0
2017-Nov-07 02:30N 49°18' W 123°13'0 0.0
2017-Nov-07 02:00N 49°18' W 123°13'0 0.0
2017-Nov-07 01:30N 49°18' W 123°13'0 0.1
2017-Nov-07 01:00N 49°18' W 123°13'0 0.1
2017-Nov-07 00:30N 49°18' W 123°13'0 0.2
2017-Nov-07 00:00N 49°18' W 123°13'0 0.1
2017-Nov-06 23:30N 49°18' W 123°13'0 0.1
2017-Nov-06 22:54N 49°18' W 123°13'0 0.1
2017-Nov-06 22:30N 49°18' W 123°14'0 0.2
2017-Nov-06 22:00N 49°18' W 123°14'0 0.1
2017-Nov-06 21:30N 49°18' W 123°14'0 0.1
2017-Nov-06 21:00N 49°18' W 123°14'0 0.0
2017-Nov-06 20:15N 49°18' W 123°14'0 0.0
2017-Nov-06 02:30N 49°18' W 123°13'0 0.0
2017-Nov-06 02:00N 49°18' W 123°13'0 0.0
2017-Nov-06 01:18N 49°18' W 123°13'0 0.1
2017-Nov-06 01:00N 49°18' W 123°13'0 0.2
2017-Nov-06 00:21N 49°18' W 123°13'0 0.1
2017-Nov-06 00:00N 49°18' W 123°13'0 0.2
2017-Nov-05 23:30N 49°18' W 123°14'2 3.9
2017-Nov-05 23:00N 49°18' W 123°17'4 8.7
2017-Nov-05 22:30N 49°14' W 123°19'612.6
2017-Nov-05 22:00N 49°07' W 123°20'611.4
2017-Nov-05 21:30N 49°02' W 123°17'5 9.9
2017-Nov-05 21:00N 49°00' W 123°10'1 0.3
2017-Nov-05 18:13N 49°01' W 123°09'0 0.0
2017-Nov-05 17:55N 49°01' W 123°09'0 0.0
2017-Nov-05 17:28N 49°01' W 123°09'0 0.0
2017-Nov-05 16:58N 49°01' W 123°09'0 0.0
2017-Nov-05 14:43N 49°01' W 123°09'0 0.0
2017-Nov-05 14:22N 49°01' W 123°09'0 0.0
2017-Nov-05 13:34N 49°01' W 123°09'0 0.0
2017-Nov-04 17:55N 49°01' W 123°09'0 0.0
2017-Nov-04 15:10N 49°01' W 123°09'0 0.0
2017-Nov-04 14:40N 49°01' W 123°09'0 0.0
2017-Nov-04 13:58N 49°01' W 123°09'0 0.0
2017-Nov-04 10:28N 49°01' W 123°09'0 0.0
2017-Nov-04 09:43N 49°01' W 123°09'0 0.0
2017-Nov-04 09:28N 49°01' W 123°09'0 0.0
2017-Nov-04 08:22N 49°01' W 123°09'0 0.0
2017-Nov-04 07:49N 49°01' W 123°09'0 0.0
2017-Nov-04 07:13N 49°01' W 123°09'0 0.0
2017-Nov-04 06:52N 49°01' W 123°09'0 0.0
2017-Nov-04 06:13N 49°01' W 123°09'0 0.0
2017-Nov-04 05:46N 49°01' W 123°09'0 0.0
2017-Nov-04 05:28N 49°01' W 123°09'0 0.0
2017-Nov-04 01:22N 49°01' W 123°09'0 0.0
2017-Nov-03 10:40N 49°01' W 123°09'0 0.0
2017-Nov-03 10:28N 49°01' W 123°09'0 0.0
2017-Nov-03 09:46N 49°01' W 123°09'0 0.0
2017-Nov-03 08:58N 49°01' W 123°09'0 0.0
2017-Nov-03 04:16N 49°01' W 123°09'0 0.1
2017-Nov-03 03:58N 49°01' W 123°09'1 1.5
2017-Nov-03 03:30N 49°00' W 123°10'4 8.0
2017-Nov-03 03:00N 49°00' W 123°16'612.7
2017-Nov-03 02:30N 49°04' W 123°24'612.8
2017-Nov-03 02:00N 49°10' W 123°24'713.4
2017-Nov-03 01:30N 49°17' W 123°21'510.0
2017-Nov-03 01:01N 49°18' W 123°13'0 0.1
2017-Nov-03 00:30N 49°18' W 123°13'0 0.1
2017-Nov-02 23:57N 49°18' W 123°13'0 0.1
2017-Nov-02 23:24N 49°18' W 123°13'0 0.4
2017-Nov-02 23:00N 49°18' W 123°14'0 0.4
2017-Nov-02 22:30N 49°18' W 123°14'0 0.1
2017-Nov-02 22:00N 49°18' W 123°14'0 0.1
2017-Nov-02 21:30N 49°18' W 123°14'0 0.1
2017-Nov-02 21:00N 49°18' W 123°14'0 0.0
2017-Nov-02 20:30N 49°18' W 123°14'0 0.0
2017-Nov-02 20:00N 49°18' W 123°14'0 0.1
2017-Nov-02 19:27N 49°18' W 123°14'0 0.0
2017-Nov-02 19:00N 49°18' W 123°14'0 0.1
2017-Nov-02 18:30N 49°18' W 123°14'0 0.2
2017-Nov-02 18:00N 49°18' W 123°14'0 0.0
2017-Nov-02 17:30N 49°18' W 123°14'0 0.2
2017-Nov-02 17:00N 49°18' W 123°14'0 0.3
2017-Nov-02 16:30N 49°18' W 123°14'0 0.3
2017-Nov-02 16:00N 49°18' W 123°13'0 0.0
2017-Nov-02 15:27N 49°18' W 123°13'0 0.1
2017-Nov-02 15:00N 49°18' W 123°13'0 0.0
2017-Nov-02 14:27N 49°18' W 123°13'0 0.1
2017-Nov-02 14:00N 49°18' W 123°13'0 0.0
2017-Nov-02 13:30N 49°18' W 123°13'0 0.0
2017-Nov-02 13:00N 49°18' W 123°13'0 0.0
2017-Nov-02 12:30N 49°18' W 123°13'0 0.1
2017-Nov-02 12:00N 49°18' W 123°13'0 0.1
2017-Nov-02 11:30N 49°18' W 123°13'0 0.0
2017-Nov-02 11:00N 49°18' W 123°13'0 0.2
2017-Nov-02 10:30N 49°18' W 123°14'0 0.0
2017-Nov-02 10:00N 49°18' W 123°14'0 0.0
2017-Nov-02 09:30N 49°18' W 123°14'0 0.1
2017-Nov-02 09:00N 49°18' W 123°13'0 0.2
2017-Nov-02 08:30N 49°18' W 123°13'0 0.0
2017-Nov-02 08:00N 49°18' W 123°13'0 0.0
2017-Nov-02 07:30N 49°18' W 123°13'0 0.0
2017-Nov-02 07:00N 49°18' W 123°13'0 0.0
2017-Nov-02 06:30N 49°18' W 123°13'0 0.1
2017-Nov-02 06:00N 49°18' W 123°13'0 0.3
2017-Nov-02 05:30N 49°18' W 123°14'0 0.2
2017-Nov-02 05:00N 49°18' W 123°14'0 0.1
2017-Nov-02 04:30N 49°18' W 123°14'0 0.0
2017-Nov-02 03:57N 49°18' W 123°14'0 0.0
2017-Nov-02 03:30N 49°18' W 123°14'0 0.1
2017-Nov-02 03:00N 49°18' W 123°14'0 0.0
2017-Nov-02 02:30N 49°18' W 123°14'0 0.1
2017-Nov-02 02:00N 49°18' W 123°14'0 0.0
2017-Nov-02 01:30N 49°18' W 123°14'0 0.1
2017-Nov-02 00:57N 49°18' W 123°14'0 0.1
2017-Nov-02 00:30N 49°18' W 123°14'0 0.1
2017-Nov-02 00:00N 49°18' W 123°14'0 0.0
2017-Nov-01 23:30N 49°18' W 123°14'0 0.1
2017-Nov-01 23:00N 49°18' W 123°14'0 0.1
2017-Nov-01 22:30N 49°18' W 123°14'0 0.0
2017-Nov-01 22:00N 49°18' W 123°14'0 0.1
2017-Nov-01 21:30N 49°18' W 123°14'0 0.1
2017-Nov-01 21:00N 49°18' W 123°14'0 0.1
2017-Nov-01 20:30N 49°18' W 123°13'0 0.2
2017-Nov-01 20:00N 49°18' W 123°13'0 0.1
2017-Nov-01 19:30N 49°18' W 123°13'0 0.1
2017-Nov-01 19:00N 49°18' W 123°13'0 0.0
2017-Nov-01 18:30N 49°18' W 123°13'0 0.0
2017-Nov-01 02:00N 49°18' W 123°13'0 0.1
2017-Nov-01 01:30N 49°18' W 123°13'0 0.0
2017-Nov-01 01:00N 49°18' W 123°13'0 0.0
2017-Nov-01 00:24N 49°18' W 123°13'0 0.0
2017-Nov-01 00:00N 49°18' W 123°13'0 0.1
2017-Oct-31 23:30N 49°18' W 123°13'0 0.0
2017-Oct-31 23:00N 49°18' W 123°13'0 0.1
2017-Oct-31 22:30N 49°18' W 123°13'0 0.0
2017-Oct-31 22:00N 49°18' W 123°13'0 0.1
2017-Oct-31 21:30N 49°18' W 123°14'0 0.1
2017-Oct-31 21:00N 49°18' W 123°14'0 0.1
2017-Oct-31 20:30N 49°18' W 123°14'0 0.2
2017-Oct-31 20:00N 49°18' W 123°14'0 0.1
2017-Oct-31 19:27N 49°18' W 123°14'0 0.0
2017-Oct-31 19:00N 49°18' W 123°14'0 0.1
2017-Oct-31 18:27N 49°18' W 123°14'0 0.0
2017-Oct-31 18:00N 49°18' W 123°14'0 0.0
2017-Oct-31 17:30N 49°18' W 123°14'0 0.0
2017-Oct-31 17:00N 49°18' W 123°14'0 0.0
2017-Oct-31 16:30N 49°18' W 123°14'0 0.0
2017-Oct-31 16:01N 49°18' W 123°14'0 0.2
2017-Oct-31 15:31N 49°18' W 123°14'1 1.9
2017-Oct-31 15:00N 49°18' W 123°15'4 8.3
2017-Oct-31 14:31N 49°17' W 123°21'713.3
2017-Oct-31 14:00N 49°10' W 123°21'612.9
2017-Oct-31 13:30N 49°04' W 123°20'713.2
2017-Oct-31 13:00N 48°59' W 123°13'612.9
2017-Oct-31 12:31N 48°54' W 123°06'613.0
2017-Oct-31 12:01N 48°49' W 123°00'510.9
2017-Oct-31 11:31N 48°45' W 123°05'612.8
2017-Oct-31 11:00N 48°44' W 123°15'612.6
2017-Oct-31 10:30N 48°44' W 123°25'4 8.0
2017-Oct-31 09:58N 48°43' W 123°31'1 0.1
2017-Oct-30 19:07N 48°43' W 123°33'0 0.0
2017-Oct-30 18:46N 48°43' W 123°33'  

Dump ship's entire track history